Terminal Aerodrome Forecast
Issued by NWS Bismarck, ND

Home | Current Version | Previous Version | Graphics & Text | Print | Product List | Glossary On
Versions: 1 2 3 4 5 6 7 8 9 10 11 12 13 14
739
FTUS43 KBIS 251132
TAFISN
TAF
KISN 251132Z 2512/2612 29004KT P6SM VCSH BKN100
     FM251400 34005KT P6SM -SHRA BKN070 OVC100
     FM251700 35007KT P6SM SCT070
     FM260100 02009KT P6SM SKC
     FM260300 06006KT P6SM SKC
     FM261000 12004KT P6SM SKC=

USA.gov is the U.S. government's official web portal to all federal, state and local government web resources and services.